Time;durP1;ratioP1;P1;durP2;ratioP2;P2;SDS_P1;SDS_P2;PMS_P1;PMS_P2;Temp;Humidity;BMP_temperature;BMP_pressure;BME280_temperature;BME280_humidity;BME280_pressure;Samples;Min_cycle;Max_cycle;Signal;HPM_P1;HPM_P2
2022/03/13 00:00:10;;;;;;;9.47;7.57;;;6.90;58.60;;;;;;5084801;28;20730;-80
2022/03/13 00:02:37;;;;;;;9.03;6.77;;;6.90;59.10;;;;;;5090911;28;20357;-80
2022/03/13 00:05:08;;;;;;;9.13;7.27;;;6.90;58.30;;;;;;5090550;28;20207;-80
2022/03/13 00:07:38;;;;;;;7.10;6.40;;;6.80;58.10;;;;;;5080921;28;20226;-81
2022/03/13 00:10:06;;;;;;;10.30;6.93;;;6.80;58.10;;;;;;5091069;28;20226;-81
2022/03/13 00:12:33;;;;;;;9.13;7.27;;;6.80;58.10;;;;;;5091199;28;20210;-81
2022/03/13 00:15:01;;;;;;;8.17;6.47;;;6.70;58.10;;;;;;5090677;28;20215;-81
2022/03/13 00:17:29;;;;;;;8.33;6.53;;;6.80;58.20;;;;;;5090749;28;20206;-81
2022/03/13 00:19:57;;;;;;;10.03;7.00;;;6.70;58.10;;;;;;5071604;28;20330;-80
2022/03/13 00:22:26;;;;;;;8.43;6.57;;;6.70;57.30;;;;;;5070359;28;20243;-80
2022/03/13 00:24:52;;;;;;;8.47;6.23;;;6.70;57.50;;;;;;5070114;28;20211;-79
2022/03/13 00:27:19;;;;;;;10.17;6.37;;;6.70;57.00;;;;;;5070897;28;20207;-80
2022/03/13 00:29:46;;;;;;;6.40;5.80;;;6.70;56.80;;;;;;5070151;28;20231;-80
2022/03/13 00:32:12;;;;;;;11.57;6.13;;;6.70;56.60;;;;;;5070339;28;20238;-80
2022/03/13 00:34:39;;;;;;;8.97;6.40;;;6.70;56.80;;;;;;5070313;28;20265;-80
2022/03/13 00:37:06;;;;;;;8.10;6.43;;;6.60;57.00;;;;;;5070344;28;20289;-81
2022/03/13 00:39:34;;;;;;;8.97;6.23;;;6.60;57.00;;;;;;5070334;28;20260;-80
2022/03/13 00:42:01;;;;;;;7.80;5.93;;;6.60;57.20;;;;;;5070160;28;20211;-81
2022/03/13 00:44:28;;;;;;;8.73;6.17;;;6.60;57.20;;;;;;5073371;28;20256;-80
2022/03/13 00:46:54;;;;;;;7.53;6.23;;;6.50;57.20;;;;;;5089998;28;20218;-80
2022/03/13 00:49:21;;;;;;;9.40;6.87;;;6.50;57.30;;;;;;5076760;28;20211;-80
2022/03/13 00:51:47;;;;;;;9.33;6.53;;;6.50;57.30;;;;;;5069419;28;20235;-80
2022/03/13 00:54:14;;;;;;;7.43;6.20;;;6.40;57.30;;;;;;5069575;28;20250;-81
2022/03/13 00:56:42;;;;;;;7.30;6.00;;;6.40;57.30;;;;;;5089243;28;20211;-80
2022/03/13 00:59:09;;;;;;;6.73;6.00;;;6.40;57.10;;;;;;5089688;28;20202;-80
2022/03/13 01:01:35;;;;;;;10.57;6.40;;;6.40;57.00;;;;;;5090057;28;20248;-81
2022/03/13 01:04:02;;;;;;;9.47;6.33;;;6.40;57.30;;;;;;5073571;28;20670;-80
2022/03/13 01:06:28;;;;;;;10.87;6.17;;;6.40;57.90;;;;;;5069662;28;20261;-80
2022/03/13 01:08:55;;;;;;;10.13;6.50;;;6.30;57.40;;;;;;5069385;28;20200;-80
2022/03/13 01:11:23;;;;;;;8.23;6.30;;;6.30;57.70;;;;;;5069446;28;20239;-80
2022/03/13 01:13:51;;;;;;;7.53;5.90;;;6.30;57.40;;;;;;5069413;28;20208;-80
2022/03/13 01:16:20;;;;;;;8.47;6.17;;;6.20;57.50;;;;;;5089388;28;20668;-80
2022/03/13 01:18:48;;;;;;;7.67;6.27;;;6.20;57.50;;;;;;5089735;28;20206;-80
2022/03/13 01:21:15;;;;;;;7.43;6.10;;;6.20;57.50;;;;;;5074618;28;20241;-80
2022/03/13 01:23:53;;;;;;;9.23;6.67;;;6.10;57.60;;;;;;5068884;28;20697;-81
2022/03/13 01:26:38;;;;;;;6.57;5.87;;;6.20;57.60;;;;;;5069442;28;20199;-80
2022/03/13 01:29:08;;;;;;;8.73;6.37;;;6.10;57.70;;;;;;5068800;28;20211;-80
2022/03/13 01:31:37;;;;;;;7.87;6.50;;;6.10;57.60;;;;;;5068694;28;20319;-81
2022/03/13 01:34:05;;;;;;;8.93;6.33;;;6.10;57.80;;;;;;5068808;28;20208;-80
2022/03/13 01:36:32;;;;;;;7.53;6.33;;;6.00;57.80;;;;;;5074744;28;20203;-80
2022/03/13 01:39:01;;;;;;;8.27;6.20;;;6.00;57.80;;;;;;5088782;28;20280;-80
2022/03/13 01:41:29;;;;;;;8.30;6.53;;;6.00;58.00;;;;;;5089331;28;20614;-80
2022/03/13 01:43:56;;;;;;;9.67;6.67;;;6.00;57.90;;;;;;5088726;28;20210;-81
2022/03/13 01:46:24;;;;;;;6.60;5.83;;;5.90;58.30;;;;;;5069218;28;20215;-80
2022/03/13 01:48:58;;;;;;;6.77;6.10;;;5.90;58.10;;;;;;5068552;28;20208;-80
2022/03/13 01:51:26;;;;;;;8.50;6.10;;;6.00;58.50;;;;;;5075285;28;20238;-80
2022/03/13 01:53:54;;;;;;;7.23;5.80;;;6.00;57.80;;;;;;5071299;28;20207;-80
2022/03/13 01:56:21;;;;;;;7.70;6.37;;;6.00;57.70;;;;;;5068570;28;21056;-81
2022/03/13 01:58:51;;;;;;;7.63;5.70;;;5.90;58.00;;;;;;5072006;28;20211;-80
2022/03/13 02:01:18;;;;;;;7.93;5.93;;;5.90;57.80;;;;;;5087673;28;20264;-80
2022/03/13 02:03:47;;;;;;;7.27;5.90;;;5.80;57.80;;;;;;5088740;28;20211;-81
2022/03/13 02:06:14;;;;;;;5.87;5.27;;;5.90;57.50;;;;;;5088619;28;20723;-80
2022/03/13 02:08:40;;;;;;;7.33;6.00;;;5.80;57.40;;;;;;5088530;28;20706;-81
2022/03/13 02:11:08;;;;;;;7.60;5.70;;;5.70;57.60;;;;;;5088218;28;20305;-81
2022/03/13 02:13:36;;;;;;;7.70;5.77;;;5.70;57.50;;;;;;5087366;28;20202;-80
2022/03/13 02:16:06;;;;;;;8.20;5.87;;;5.80;57.50;;;;;;5067863;28;20210;-81
2022/03/13 02:18:33;;;;;;;7.17;6.00;;;5.70;57.60;;;;;;5068243;28;20244;-80
2022/03/13 02:21:04;;;;;;;7.77;5.20;;;5.70;57.50;;;;;;5080555;28;20264;-80
2022/03/13 02:23:32;;;;;;;7.30;5.70;;;5.70;57.60;;;;;;5088192;28;20259;-81
2022/03/13 02:26:02;;;;;;;6.00;5.40;;;5.70;57.90;;;;;;5088391;28;20252;-81
2022/03/13 02:28:31;;;;;;;6.93;6.07;;;5.70;57.70;;;;;;5088711;28;20332;-81
2022/03/13 02:30:59;;;;;;;8.43;6.07;;;5.60;58.20;;;;;;5087935;28;20230;-81
2022/03/13 02:33:26;;;;;;;7.93;5.67;;;5.60;58.40;;;;;;5086063;28;20207;-80
2022/03/13 02:35:55;;;;;;;8.17;6.10;;;5.50;58.70;;;;;;5088012;28;20626;-81
2022/03/13 02:38:22;;;;;;;6.30;5.70;;;5.50;58.70;;;;;;5088420;28;20276;-80
2022/03/13 02:40:50;;;;;;;7.60;5.90;;;5.50;59.00;;;;;;5084180;28;20204;-81
2022/03/13 02:43:17;;;;;;;8.07;6.33;;;5.40;59.00;;;;;;5067793;28;20203;-81
2022/03/13 02:45:45;;;;;;;7.10;5.87;;;5.40;58.90;;;;;;5067660;28;20207;-80
2022/03/13 02:48:12;;;;;;;7.33;6.50;;;5.40;58.80;;;;;;5079126;28;20695;-80
2022/03/13 02:50:40;;;;;;;8.57;6.67;;;5.40;58.90;;;;;;5087935;28;20234;-81
2022/03/13 02:53:09;;;;;;;8.80;6.40;;;5.40;59.20;;;;;;5077282;28;20272;-80
2022/03/13 02:55:36;;;;;;;8.43;6.33;;;5.40;59.10;;;;;;5075984;28;20202;-81
2022/03/13 02:58:06;;;;;;;8.10;6.70;;;5.30;59.30;;;;;;5069013;28;20723;-81
2022/03/13 03:00:43;;;;;;;9.20;6.67;;;5.30;59.60;;;;;;5067768;28;20302;-80
2022/03/13 03:03:10;;;;;;;8.53;6.33;;;5.20;59.80;;;;;;5067919;28;20274;-80
2022/03/13 03:05:37;;;;;;;7.57;6.37;;;5.30;59.90;;;;;;5067527;28;20269;-81
2022/03/13 03:08:07;;;;;;;10.47;6.53;;;5.20;60.10;;;;;;5081209;28;20225;-81
2022/03/13 03:10:34;;;;;;;9.23;6.83;;;5.10;60.30;;;;;;5087834;28;20218;-80
2022/03/13 03:13:01;;;;;;;9.10;6.43;;;5.20;60.30;;;;;;5089876;28;20207;-80
2022/03/13 03:15:29;;;;;;;8.73;6.80;;;5.20;60.60;;;;;;5091285;28;20218;-80
2022/03/13 03:17:56;;;;;;;7.40;6.50;;;5.10;60.50;;;;;;5091707;28;20203;-81
2022/03/13 03:20:23;;;;;;;7.17;6.07;;;5.10;60.40;;;;;;5084378;28;20203;-81
2022/03/13 03:22:52;;;;;;;7.93;6.43;;;5.10;60.60;;;;;;5071145;28;20236;-80
2022/03/13 03:25:23;;;;;;;10.50;6.70;;;5.00;60.90;;;;;;5071675;28;20237;-80
2022/03/13 03:27:50;;;;;;;11.63;7.17;;;5.10;60.60;;;;;;5071595;28;20246;-81
2022/03/13 03:30:20;;;;;;;9.90;6.90;;;5.00;60.70;;;;;;5087342;28;20203;-81
2022/03/13 03:32:48;;;;;;;8.97;6.60;;;4.90;60.50;;;;;;5091584;28;20294;-80
2022/03/13 03:35:16;;;;;;;10.00;6.77;;;4.90;61.00;;;;;;5091302;28;20703;-81
2022/03/13 03:37:43;;;;;;;10.63;6.83;;;4.90;60.60;;;;;;5082096;28;20208;-81
2022/03/13 03:40:11;;;;;;;8.57;6.20;;;4.80;60.60;;;;;;5086796;28;20215;-80
2022/03/13 03:42:38;;;;;;;7.37;6.57;;;4.80;61.10;;;;;;5091638;28;20207;-80
2022/03/13 03:45:05;;;;;;;9.10;6.13;;;4.80;60.80;;;;;;5090997;28;20206;-81
2022/03/13 03:47:31;;;;;;;9.60;6.10;;;4.80;60.90;;;;;;5091026;28;20203;-80
2022/03/13 03:50:00;;;;;;;8.40;6.93;;;4.80;60.90;;;;;;5091054;28;21004;-80
2022/03/13 03:52:27;;;;;;;11.27;6.47;;;4.80;60.80;;;;;;5089006;28;20241;-81
2022/03/13 03:54:53;;;;;;;10.67;6.87;;;4.80;60.70;;;;;;5091218;28;20252;-80
2022/03/13 03:57:20;;;;;;;10.00;6.83;;;4.70;60.90;;;;;;5091262;28;20530;-81
2022/03/13 03:59:47;;;;;;;11.80;6.87;;;4.70;61.00;;;;;;5091038;28;20203;-81
2022/03/13 04:02:14;;;;;;;10.00;6.80;;;4.70;61.20;;;;;;5091270;28;20211;-81
2022/03/13 04:04:41;;;;;;;7.87;6.50;;;4.70;61.20;;;;;;5074528;28;20211;-81
2022/03/13 04:07:09;;;;;;;9.27;7.07;;;4.60;61.00;;;;;;5070567;28;20704;-80
2022/03/13 04:09:36;;;;;;;7.90;6.60;;;4.70;61.10;;;;;;5071115;28;20207;-81
2022/03/13 04:12:07;;;;;;;6.97;6.17;;;4.70;61.20;;;;;;5080912;28;20230;-80
2022/03/13 04:14:35;;;;;;;9.13;6.97;;;4.60;61.30;;;;;;5090338;28;20742;-80
2022/03/13 04:17:02;;;;;;;7.70;6.40;;;4.60;61.30;;;;;;5090495;28;20669;-80
2022/03/13 04:19:28;;;;;;;9.37;7.17;;;4.60;61.10;;;;;;5090871;28;20210;-80
2022/03/13 04:21:55;;;;;;;9.77;7.03;;;4.60;61.30;;;;;;5090424;28;20237;-81
2022/03/13 04:24:24;;;;;;;8.33;6.63;;;4.60;61.40;;;;;;5089936;28;20206;-81
2022/03/13 04:26:50;;;;;;;8.83;6.50;;;4.50;61.40;;;;;;5090394;28;20700;-80
2022/03/13 04:29:18;;;;;;;8.93;6.73;;;4.50;61.30;;;;;;5090343;28;20276;-81
2022/03/13 04:31:46;;;;;;;8.23;6.37;;;4.50;61.30;;;;;;5090516;28;20238;-80
2022/03/13 04:34:13;;;;;;;10.17;6.93;;;4.50;61.10;;;;;;5090387;28;20233;-81
2022/03/13 04:36:40;;;;;;;9.23;6.67;;;4.50;61.10;;;;;;5090507;28;20272;-80
2022/03/13 04:39:08;;;;;;;10.87;6.90;;;4.50;61.30;;;;;;5090163;28;20264;-81
2022/03/13 04:41:37;;;;;;;6.87;6.10;;;4.50;61.10;;;;;;5080359;28;20214;-80
2022/03/13 04:44:05;;;;;;;7.50;6.30;;;4.50;61.30;;;;;;5089611;28;20703;-80
2022/03/13 04:46:32;;;;;;;9.33;6.57;;;4.50;61.00;;;;;;5070606;28;20245;-81
2022/03/13 04:48:59;;;;;;;10.97;6.50;;;4.50;61.00;;;;;;5069960;28;20211;-81
2022/03/13 04:51:26;;;;;;;8.43;6.50;;;4.50;61.70;;;;;;5069761;28;20231;-81
2022/03/13 04:53:53;;;;;;;9.27;6.73;;;4.40;60.90;;;;;;5084544;28;20661;-81
2022/03/13 04:56:19;;;;;;;8.67;6.57;;;4.50;60.80;;;;;;5090181;28;20203;-81
2022/03/13 04:58:47;;;;;;;10.00;6.67;;;4.40;61.40;;;;;;5090065;28;20257;-80
2022/03/13 05:01:14;;;;;;;7.97;6.03;;;4.40;60.90;;;;;;5089850;28;20212;-80
2022/03/13 05:03:41;;;;;;;9.90;6.70;;;4.40;60.90;;;;;;5090184;28;20218;-80
2022/03/13 05:06:07;;;;;;;8.40;6.47;;;4.40;60.80;;;;;;5090990;28;20268;-80
2022/03/13 05:08:36;;;;;;;8.43;6.27;;;4.40;60.60;;;;;;5091662;28;20256;-80
2022/03/13 05:11:05;;;;;;;11.00;6.80;;;4.40;60.60;;;;;;5091126;28;20297;-80
2022/03/13 05:13:32;;;;;;;11.03;6.40;;;4.40;60.80;;;;;;5091482;28;20249;-80
2022/03/13 05:16:04;;;;;;;7.00;6.00;;;4.30;61.20;;;;;;5075241;28;20215;-80
2022/03/13 05:18:31;;;;;;;8.63;6.43;;;4.30;61.00;;;;;;5070551;28;20240;-81
2022/03/13 05:20:59;;;;;;;7.27;5.73;;;4.20;61.00;;;;;;5071604;28;20223;-81
2022/03/13 05:23:26;;;;;;;9.20;6.17;;;4.30;60.90;;;;;;5090579;28;20235;-81
2022/03/13 05:25:53;;;;;;;9.07;5.93;;;4.30;60.90;;;;;;5091071;28;20287;-81
2022/03/13 05:28:20;;;;;;;7.63;6.07;;;4.30;60.90;;;;;;5089710;28;20256;-80
2022/03/13 05:30:47;;;;;;;9.07;6.13;;;4.30;60.80;;;;;;5075522;28;20222;-80
2022/03/13 05:33:15;;;;;;;7.60;6.03;;;4.30;60.50;;;;;;5069501;28;20325;-81
2022/03/13 05:35:42;;;;;;;7.63;6.27;;;4.30;60.50;;;;;;5069845;28;20650;-80
2022/03/13 05:38:08;;;;;;;8.23;6.63;;;4.30;60.80;;;;;;5077630;28;20208;-80
2022/03/13 05:40:36;;;;;;;8.77;6.30;;;4.30;60.60;;;;;;5087945;28;20260;-80
2022/03/13 05:43:04;;;;;;;7.73;5.90;;;4.20;60.60;;;;;;5090442;28;20206;-80
2022/03/13 05:45:32;;;;;;;8.37;5.70;;;4.20;60.80;;;;;;5093402;28;20207;-81
2022/03/13 05:48:00;;;;;;;7.17;5.70;;;4.20;60.40;;;;;;5093030;28;20207;-79
2022/03/13 05:50:29;;;;;;;7.40;6.00;;;4.30;60.40;;;;;;5093370;28;20227;-79
2022/03/13 05:52:56;;;;;;;8.03;5.73;;;4.30;60.40;;;;;;5084708;28;20237;-80
2022/03/13 05:55:25;;;;;;;7.10;5.80;;;4.30;60.00;;;;;;5074981;28;20207;-79
2022/03/13 05:57:52;;;;;;;9.60;6.17;;;4.30;60.40;;;;;;5092728;28;20266;-80
2022/03/13 06:00:21;;;;;;;8.40;6.40;;;4.30;60.00;;;;;;5094103;28;20206;-79
2022/03/13 06:02:48;;;;;;;8.20;6.17;;;4.30;60.60;;;;;;5092083;28;20207;-81
2022/03/13 06:05:16;;;;;;;7.23;5.77;;;4.30;60.40;;;;;;5094683;28;20211;-78
2022/03/13 06:07:45;;;;;;;7.90;6.27;;;4.30;60.00;;;;;;5094304;28;20203;-78
2022/03/13 06:10:13;;;;;;;6.67;5.90;;;4.30;60.00;;;;;;5093763;28;20202;-78
2022/03/13 06:12:40;;;;;;;9.00;5.90;;;4.30;59.80;;;;;;5093572;28;20234;-79
2022/03/13 06:15:11;;;;;;;7.33;6.13;;;4.30;59.80;;;;;;5092813;28;20229;-79
2022/03/13 06:17:39;;;;;;;7.97;6.43;;;4.30;60.00;;;;;;5092669;28;20195;-79
2022/03/13 06:20:10;;;;;;;8.13;6.20;;;4.40;60.00;;;;;;5088890;28;20721;-79
2022/03/13 06:22:37;;;;;;;8.03;6.03;;;4.40;59.90;;;;;;5088216;28;20303;-79
2022/03/13 06:25:07;;;;;;;11.70;6.70;;;4.40;60.20;;;;;;5088144;28;20210;-79
2022/03/13 06:27:34;;;;;;;6.80;5.90;;;4.40;60.00;;;;;;5070276;28;20655;-79
2022/03/13 06:30:01;;;;;;;8.47;6.30;;;4.40;59.80;;;;;;5068045;28;20204;-79
2022/03/13 06:32:28;;;;;;;8.83;6.03;;;4.40;59.90;;;;;;5073226;28;20713;-79
2022/03/13 06:34:55;;;;;;;9.53;6.43;;;4.50;59.70;;;;;;5088147;28;20214;-79
2022/03/13 06:37:22;;;;;;;8.57;6.40;;;4.50;59.70;;;;;;5088043;28;20879;-79
2022/03/13 06:39:51;;;;;;;7.37;5.60;;;4.50;59.70;;;;;;5088233;28;20305;-79
2022/03/13 06:42:19;;;;;;;7.67;6.17;;;4.50;59.40;;;;;;5088385;28;20218;-80
2022/03/13 06:44:46;;;;;;;7.77;6.03;;;4.50;59.40;;;;;;5082088;28;20268;-79
2022/03/13 06:47:13;;;;;;;6.70;5.77;;;4.50;59.60;;;;;;5067363;28;20657;-80
2022/03/13 06:49:40;;;;;;;8.63;6.33;;;4.50;59.90;;;;;;5079337;28;20223;-80
2022/03/13 06:52:07;;;;;;;8.40;6.23;;;4.60;59.40;;;;;;5088285;28;20276;-80
2022/03/13 06:54:34;;;;;;;7.60;6.37;;;4.60;59.50;;;;;;5088950;28;20202;-79
2022/03/13 06:57:01;;;;;;;7.70;6.27;;;4.60;59.60;;;;;;5088183;28;20317;-80
2022/03/13 06:59:29;;;;;;;9.67;6.40;;;4.60;59.90;;;;;;5087891;28;20203;-80
2022/03/13 07:01:56;;;;;;;8.70;6.60;;;4.70;59.50;;;;;;5088142;28;20210;-80
2022/03/13 07:04:22;;;;;;;8.70;6.37;;;4.70;59.40;;;;;;5088024;28;20207;-80
2022/03/13 07:06:49;;;;;;;7.73;5.70;;;4.80;59.60;;;;;;5087889;28;20539;-80
2022/03/13 07:09:15;;;;;;;7.97;5.83;;;4.80;59.40;;;;;;5087805;28;20251;-79
2022/03/13 07:11:45;;;;;;;6.90;5.53;;;4.90;59.40;;;;;;5087838;28;20206;-80
2022/03/13 07:14:12;;;;;;;9.33;5.63;;;4.90;58.60;;;;;;5087326;28;20256;-81
2022/03/13 07:16:41;;;;;;;8.03;5.60;;;5.00;57.80;;;;;;5087890;28;20241;-80
2022/03/13 07:19:08;;;;;;;7.23;5.00;;;5.00;57.50;;;;;;5087925;28;20255;-82
2022/03/13 07:21:35;;;;;;;8.20;5.50;;;5.10;57.60;;;;;;5088024;28;20218;-80
2022/03/13 07:24:01;;;;;;;6.33;5.43;;;5.20;58.00;;;;;;5068187;28;20207;-80
2022/03/13 07:26:28;;;;;;;6.03;5.10;;;5.20;57.40;;;;;;5068109;28;20241;-81
2022/03/13 07:28:54;;;;;;;6.60;5.60;;;5.40;57.20;;;;;;5067296;28;20270;-80
2022/03/13 07:31:21;;;;;;;7.07;5.50;;;5.40;56.90;;;;;;5085145;28;20203;-80
2022/03/13 07:33:52;;;;;;;5.80;5.10;;;5.50;56.70;;;;;;5087952;28;20578;-80
2022/03/13 07:36:18;;;;;;;6.63;5.00;;;5.50;56.20;;;;;;5087587;28;20206;-80
2022/03/13 07:38:45;;;;;;;6.07;5.03;;;5.60;55.40;;;;;;5087904;28;20234;-80
2022/03/13 07:41:12;;;;;;;5.57;5.07;;;5.70;55.30;;;;;;5087823;28;20211;-79
2022/03/13 07:43:39;;;;;;;6.47;4.93;;;5.80;55.70;;;;;;5087671;28;20206;-80
2022/03/13 07:46:05;;;;;;;8.53;5.47;;;5.80;55.30;;;;;;5074667;28;20215;-79
2022/03/13 07:48:34;;;;;;;7.03;5.47;;;5.90;54.90;;;;;;5074239;28;20209;-80
2022/03/13 07:51:05;;;;;;;6.53;5.50;;;6.00;55.00;;;;;;5087278;28;20276;-79
2022/03/13 07:53:31;;;;;;;7.30;5.50;;;6.00;55.00;;;;;;5087423;28;20258;-80
2022/03/13 07:55:58;;;;;;;7.33;5.60;;;6.10;55.00;;;;;;5087768;28;20211;-80
2022/03/13 07:58:25;;;;;;;7.53;5.53;;;6.20;55.30;;;;;;5087686;28;20210;-79
2022/03/13 08:00:51;;;;;;;6.47;5.70;;;6.20;55.10;;;;;;5090529;28;20206;-79
2022/03/13 08:03:34;;;;;;;9.63;5.73;;;6.30;54.60;;;;;;5091503;28;20206;-80
2022/03/13 08:06:05;;;;;;;5.40;4.90;;;6.40;54.50;;;;;;5090770;28;20667;-80
2022/03/13 08:08:32;;;;;;;5.73;5.20;;;6.50;54.50;;;;;;5090982;28;20245;-79
2022/03/13 08:10:59;;;;;;;6.13;5.50;;;6.50;54.70;;;;;;5090669;28;20206;-79
2022/03/13 08:13:26;;;;;;;6.83;5.40;;;6.60;54.30;;;;;;5091156;28;20313;-79
2022/03/13 08:15:52;;;;;;;7.43;5.57;;;6.60;54.40;;;;;;5090634;28;20217;-79
2022/03/13 08:18:19;;;;;;;5.50;4.83;;;6.70;53.80;;;;;;5091014;28;20207;-80
2022/03/13 08:20:46;;;;;;;9.20;5.03;;;6.80;53.90;;;;;;5091001;28;20268;-80
2022/03/13 08:23:14;;;;;;;6.10;5.50;;;6.80;53.90;;;;;;5090639;28;20250;-80
2022/03/13 08:25:40;;;;;;;5.30;4.80;;;6.90;53.10;;;;;;5089764;28;20280;-80
2022/03/13 08:28:07;;;;;;;6.73;5.47;;;6.90;52.70;;;;;;5070231;28;20212;-79
2022/03/13 08:30:35;;;;;;;7.43;5.70;;;7.00;53.00;;;;;;5069997;28;20211;-80
2022/03/13 08:33:02;;;;;;;5.40;4.90;;;7.10;53.10;;;;;;5077493;28;20569;-79
2022/03/13 08:35:29;;;;;;;5.60;5.07;;;7.10;53.10;;;;;;5090152;28;20202;-79
2022/03/13 08:37:56;;;;;;;6.63;5.77;;;7.20;53.80;;;;;;5080845;28;20211;-79
2022/03/13 08:40:26;;;;;;;7.67;5.67;;;7.30;53.10;;;;;;5087342;28;20211;-79
2022/03/13 08:42:52;;;;;;;5.90;5.33;;;7.30;53.10;;;;;;5090085;28;20256;-80
2022/03/13 08:45:19;;;;;;;5.70;5.10;;;7.40;52.60;;;;;;5089297;28;20218;-80
2022/03/13 08:47:47;;;;;;;6.50;5.37;;;7.40;52.60;;;;;;5090241;28;20253;-80
2022/03/13 08:50:16;;;;;;;5.70;5.10;;;7.60;52.40;;;;;;5090172;28;20317;-80
2022/03/13 08:52:43;;;;;;;7.67;5.40;;;7.60;53.00;;;;;;5089870;28;20619;-79
2022/03/13 08:55:13;;;;;;;6.77;5.80;;;7.70;53.50;;;;;;5089991;28;20214;-81
2022/03/13 08:57:42;;;;;;;5.93;5.33;;;7.80;53.00;;;;;;5090121;28;20225;-80
2022/03/13 09:00:10;;;;;;;6.37;5.67;;;7.80;53.00;;;;;;5089707;28;20228;-80
2022/03/13 09:02:37;;;;;;;6.93;5.60;;;7.90;53.10;;;;;;5089906;28;20206;-80
2022/03/13 09:05:04;;;;;;;6.00;5.40;;;8.10;53.50;;;;;;5089510;28;20203;-79
2022/03/13 09:07:31;;;;;;;9.17;5.57;;;8.20;53.30;;;;;;5076363;28;20212;-79
2022/03/13 09:09:57;;;;;;;6.10;5.13;;;8.20;52.80;;;;;;5069125;28;20670;-80
2022/03/13 09:12:24;;;;;;;7.13;5.50;;;8.30;53.20;;;;;;5069910;28;20211;-80
2022/03/13 09:14:52;;;;;;;5.70;5.20;;;8.40;52.10;;;;;;5070207;28;20212;-79
2022/03/13 09:17:19;;;;;;;7.47;5.20;;;8.30;51.60;;;;;;5069423;28;20226;-80
2022/03/13 09:19:45;;;;;;;5.97;5.23;;;8.30;51.50;;;;;;5069733;28;20268;-80
2022/03/13 09:22:14;;;;;;;5.47;4.93;;;8.30;50.50;;;;;;5069490;28;20247;-80
2022/03/13 09:24:41;;;;;;;6.67;5.03;;;8.40;51.10;;;;;;5069663;28;20248;-80
2022/03/13 09:27:07;;;;;;;7.33;5.70;;;8.60;50.90;;;;;;5069025;28;20311;-79
2022/03/13 09:29:34;;;;;;;9.53;5.83;;;8.60;50.10;;;;;;5078542;28;20206;-79
2022/03/13 09:32:02;;;;;;;7.13;5.33;;;8.70;50.50;;;;;;5089589;28;20199;-80
2022/03/13 09:34:29;;;;;;;6.13;5.37;;;8.80;50.60;;;;;;5089389;28;20239;-80
2022/03/13 09:36:56;;;;;;;7.07;5.07;;;8.90;51.40;;;;;;5089184;28;20219;-80
2022/03/13 09:39:23;;;;;;;5.90;5.17;;;9.00;50.70;;;;;;5089235;28;20210;-79
2022/03/13 09:41:50;;;;;;;6.13;5.50;;;9.00;49.70;;;;;;5089097;28;20217;-80
2022/03/13 09:44:16;;;;;;;8.73;5.67;;;9.00;50.20;;;;;;5088857;28;20203;-79
2022/03/13 09:46:44;;;;;;;5.53;5.03;;;9.10;50.70;;;;;;5089149;28;20255;-79
2022/03/13 09:49:12;;;;;;;6.27;5.30;;;9.20;50.90;;;;;;5089109;28;20234;-79
2022/03/13 09:51:38;;;;;;;5.90;5.30;;;9.20;50.40;;;;;;5088841;28;20207;-79
2022/03/13 09:54:06;;;;;;;7.17;5.20;;;9.30;50.20;;;;;;5088753;28;20234;-79
2022/03/13 09:56:35;;;;;;;7.03;5.57;;;9.40;49.60;;;;;;5089038;28;20203;-79
2022/03/13 09:59:02;;;;;;;5.60;5.10;;;9.50;49.80;;;;;;5088546;28;20199;-79
2022/03/13 10:01:29;;;;;;;6.70;6.00;;;9.50;50.00;;;;;;5088992;28;20237;-79
2022/03/13 10:03:56;;;;;;;6.73;5.60;;;9.60;49.50;;;;;;5088698;28;20211;-79
2022/03/13 10:06:25;;;;;;;5.97;5.37;;;9.60;49.70;;;;;;5088756;28;20230;-80
2022/03/13 10:08:52;;;;;;;6.33;5.30;;;9.70;49.90;;;;;;5088398;28;20207;-79
2022/03/13 10:11:31;;;;;;;5.50;5.00;;;9.80;49.80;;;;;;5080929;28;20211;-80
2022/03/13 10:14:07;;;;;;;5.97;5.37;;;9.90;49.00;;;;;;5067948;28;20223;-79
2022/03/13 10:16:37;;;;;;;7.93;4.93;;;9.90;49.20;;;;;;5068042;28;20601;-79
2022/03/13 10:19:13;;;;;;;6.10;5.27;;;10.00;49.40;;;;;;5086250;28;20207;-79
2022/03/13 10:22:00;;;;;;;5.87;5.27;;;10.10;49.10;;;;;;5087323;28;20443;-79
2022/03/13 10:24:27;;;;;;;7.77;5.20;;;10.20;48.80;;;;;;5088412;28;20221;-79
2022/03/13 10:27:08;;;;;;;5.23;4.83;;;10.30;48.90;;;;;;5069678;28;20222;-79
2022/03/13 10:29:35;;;;;;;6.23;5.40;;;10.50;50.10;;;;;;5070883;28;20219;-79
2022/03/13 10:32:02;;;;;;;5.93;5.33;;;10.50;49.30;;;;;;5088543;28;20203;-79
2022/03/13 10:34:29;;;;;;;6.10;5.50;;;10.60;48.90;;;;;;5088400;28;20242;-80
2022/03/13 10:36:57;;;;;;;4.60;4.20;;;10.60;48.90;;;;;;5087917;28;20213;-79
2022/03/13 10:39:24;;;;;;;6.13;5.23;;;10.70;49.10;;;;;;5078804;28;20665;-79
2022/03/13 10:41:56;;;;;;;5.60;5.00;;;10.90;49.50;;;;;;5067979;28;20260;-79
2022/03/13 10:44:25;;;;;;;6.43;5.40;;;11.00;48.90;;;;;;5067853;28;20218;-79
2022/03/13 10:46:54;;;;;;;5.13;4.63;;;11.00;47.80;;;;;;5067546;28;20252;-79
2022/03/13 10:49:32;;;;;;;6.87;5.23;;;11.10;47.90;;;;;;5067813;28;20223;-78
2022/03/13 10:52:02;;;;;;;5.63;5.03;;;11.20;48.50;;;;;;5067843;28;20195;-79
2022/03/13 10:54:31;;;;;;;5.57;5.07;;;11.30;48.30;;;;;;5067756;28;20322;-78
2022/03/13 10:57:06;;;;;;;5.20;4.30;;;11.40;48.70;;;;;;5068062;28;20207;-79
2022/03/13 10:59:33;;;;;;;5.10;4.20;;;11.50;46.80;;;;;;5077416;28;20716;-79
2022/03/13 11:02:12;;;;;;;4.53;4.13;;;11.50;44.90;;;;;;5087716;28;20213;-79
2022/03/13 11:04:47;;;;;;;5.20;3.73;;;11.60;45.00;;;;;;5088018;28;20187;-79
2022/03/13 11:07:15;;;;;;;5.53;3.90;;;11.60;44.70;;;;;;5083200;28;20296;-79
2022/03/13 11:09:41;;;;;;;4.30;3.90;;;11.70;45.50;;;;;;5067762;28;20581;-79
2022/03/13 11:12:17;;;;;;;4.17;3.80;;;11.90;45.60;;;;;;5067859;28;20238;-79
2022/03/13 11:14:46;;;;;;;5.10;4.53;;;12.00;45.90;;;;;;5078350;28;20710;-79
2022/03/13 11:17:14;;;;;;;4.60;4.20;;;12.00;45.30;;;;;;5087819;28;20267;-79
2022/03/13 11:19:41;;;;;;;4.10;3.80;;;12.10;46.00;;;;;;5087753;28;20297;-79
2022/03/13 11:22:08;;;;;;;3.90;3.60;;;12.20;45.70;;;;;;5087343;28;20320;-79
2022/03/13 11:24:36;;;;;;;4.03;3.47;;;12.40;46.10;;;;;;5087959;28;20229;-79
2022/03/13 11:27:05;;;;;;;3.90;3.60;;;12.50;43.60;;;;;;5087671;28;20213;-79
2022/03/13 11:29:42;;;;;;;3.70;3.37;;;12.50;43.80;;;;;;5087671;28;20207;-79
2022/03/13 11:32:34;;;;;;;3.73;3.30;;;12.60;43.00;;;;;;5067473;28;20546;-80
2022/03/13 11:35:27;;;;;;;4.67;3.70;;;12.60;42.60;;;;;;5089945;28;20234;-79
2022/03/13 11:37:56;;;;;;;3.67;3.37;;;12.70;42.20;;;;;;5091636;28;20212;-79
2022/03/13 11:40:35;;;;;;;3.67;3.37;;;12.80;43.30;;;;;;5091170;28;20209;-79
2022/03/13 11:43:08;;;;;;;4.37;3.93;;;12.90;45.00;;;;;;5091498;28;20297;-79
2022/03/13 11:45:36;;;;;;;4.50;4.10;;;13.10;45.00;;;;;;5090815;28;20343;-79
2022/03/13 11:48:39;;;;;;;4.23;3.87;;;13.20;44.80;;;;;;5090686;28;20744;-79
2022/03/13 11:51:07;;;;;;;4.10;3.80;;;13.40;44.30;;;;;;5090959;28;20206;-79
2022/03/13 11:53:44;;;;;;;5.60;3.93;;;13.50;44.60;;;;;;5076374;28;20413;-79
2022/03/13 11:56:25;;;;;;;6.70;3.87;;;13.60;44.10;;;;;;5083838;28;20190;-79
2022/03/13 11:58:53;;;;;;;4.90;4.50;;;13.70;44.50;;;;;;5091239;28;20239;-79
2022/03/13 12:01:21;;;;;;;4.40;4.00;;;13.90;44.20;;;;;;5090979;28;20210;-79
2022/03/13 12:04:22;;;;;;;4.90;4.50;;;14.00;44.70;;;;;;5090448;28;20289;-79
2022/03/13 12:06:55;;;;;;;4.30;4.00;;;14.00;44.40;;;;;;5090446;28;20202;-79
2022/03/13 12:09:44;;;;;;;4.63;4.23;;;14.10;44.40;;;;;;5090729;28;20565;-79
2022/03/13 12:12:17;;;;;;;6.47;5.00;;;14.10;44.10;;;;;;5076655;28;20211;-79
2022/03/13 12:14:59;;;;;;;4.97;4.57;;;14.20;44.90;;;;;;5090497;28;20234;-79
2022/03/13 12:17:28;;;;;;;4.50;4.10;;;14.20;44.30;;;;;;5088657;28;20307;-80
2022/03/13 12:19:56;;;;;;;5.73;4.70;;;14.40;43.90;;;;;;5070600;28;20253;-79
2022/03/13 12:22:25;;;;;;;5.30;4.80;;;14.40;44.40;;;;;;5070211;28;20228;-79
2022/03/13 12:24:54;;;;;;;5.03;4.53;;;14.40;43.70;;;;;;5069883;28;20678;-79
2022/03/13 12:27:23;;;;;;;5.00;4.50;;;14.40;43.20;;;;;;5070220;28;20218;-79
2022/03/13 12:29:55;;;;;;;5.37;4.40;;;14.50;43.20;;;;;;5077057;28;20627;-79
2022/03/13 12:32:22;;;;;;;4.93;4.40;;;14.50;43.10;;;;;;5090712;28;20378;-79
2022/03/13 12:34:49;;;;;;;5.30;4.80;;;14.60;43.30;;;;;;5090220;28;20240;-80
2022/03/13 12:37:16;;;;;;;5.90;4.57;;;14.60;42.50;;;;;;5090698;28;20268;-79
2022/03/13 12:39:50;;;;;;;5.10;4.50;;;14.60;42.10;;;;;;5079453;28;20208;-79
2022/03/13 12:42:24;;;;;;;4.97;4.47;;;14.70;42.30;;;;;;5070415;28;20294;-79
2022/03/13 12:45:04;;;;;;;4.97;4.57;;;14.70;42.40;;;;;;5074663;28;20210;-78
2022/03/13 12:47:32;;;;;;;5.63;4.80;;;14.80;43.10;;;;;;5090092;28;20203;-79
2022/03/13 12:49:59;;;;;;;5.33;4.83;;;14.80;42.90;;;;;;5089835;28;20231;-79
2022/03/13 12:52:27;;;;;;;5.00;4.60;;;14.90;42.90;;;;;;5077090;28;20254;-78
2022/03/13 12:55:01;;;;;;;5.27;4.77;;;14.80;42.60;;;;;;5069330;28;20709;-79
2022/03/13 12:57:29;;;;;;;4.93;4.53;;;15.00;43.20;;;;;;5069812;28;20200;-79
2022/03/13 12:59:56;;;;;;;5.47;4.80;;;15.20;43.60;;;;;;5069423;28;20207;-79
2022/03/13 13:02:25;;;;;;;5.40;5.00;;;15.30;43.50;;;;;;5069677;28;20541;-79